Aérodrome :
LOGIN :

S'inscrire | Disclaimer

   EN    FR    IT 

 










Légende :    VFR   VFR Marginal   IFR   IFR Intensif   IFR Très Intensif
Visi : 
Plafond : 
>= 8 km
>= 3000ft
5 à 8 km
1000 à 3000 ft
1500m à 5 km
500 à 1000 ft
800 à 1500m
200 à 500 ft
< 800m
< 200 ft
Symboles :   Orages  Brouillard  Fortes neiges  Fortes précipitations  Vent > 20 kt
SIGMETs :   Divers  Orages  Givrage  Turbulence  Onde Orograph.  Cendres Volcan.






- Altitude de l'aérodrome : 102 ft
- Code IATA : EXT


EGTE - Exeter

DERNIER METAR :
  • 202020Z 12011KT 9999 SCT020 07/04 Q1004

METARs EXPIRÉS :
  • 201950Z 12011KT 9999 SCT020 09/05 Q1004
  • 201920Z 11010KT 9999 SCT020 08/05 Q1004
  • 201850Z 12012KT 9999 SCT020 07/04 Q1004
  • 201820Z 12013KT 9999 BKN023 09/05 Q1004
  • 201750Z 12014KT 9999 BKN022 09/05 Q1004

TAF TAF EGTE
Valide du 20 à 18h jusqu'au 21 à 03h UTC


201658Z 2018/2103 14012KT 9999 SCT020
PROB30
TEMPO 2018/2103 14015G25KT



MET'MAP, la Météo Aéronautique d'un coup d'oeil ! - Copyright ORBIFLY Décembre 2007 - Disclaimer

ORBIFLY MET'MAP TEAM :

Programmation & Développement : Alexandra Zaïnal
Conception & Développement : Baudouin d'Aumeries
Co-Programmation & Développement : Marc-Olivier Méhu
Soutien technique & logistique : Manuel Goepfert

Contact : metmap@orbifly.com




SOURCES & CREDITS :

   NOAA